Time;durP1;ratioP1;P1;durP2;ratioP2;P2;SDS_P1;SDS_P2;PMS_P1;PMS_P2;Temp;Humidity;BMP_temperature;BMP_pressure;BME280_temperature;BME280_humidity;BME280_pressure;Samples;Min_cycle;Max_cycle;Signal;HPM_P1;HPM_P2
2021/09/09 00:01:46;;;;;;;1999.90;999.90;;;;;;;;;;4955376;28;20776;-62
2021/09/09 00:04:31;;;;;;;1999.90;999.90;;;;;;;;;;4953292;29;20691;-62
2021/09/09 00:07:19;;;;;;;1999.90;999.90;;;;;;;;;;4955097;29;20784;-63
2021/09/09 00:10:04;;;;;;;1999.90;999.90;;;;;;;;;;4953284;29;20360;-62
2021/09/09 00:12:49;;;;;;;1999.90;999.90;;;;;;;;;;4955455;28;20606;-61
2021/09/09 00:15:34;;;;;;;1999.90;999.90;;;;;;;;;;4952125;29;20834;-62
2021/09/09 00:18:18;;;;;;;1999.90;999.90;;;;;;;;;;4954616;29;20295;-63
2021/09/09 00:21:04;;;;;;;1999.90;999.90;;;;;;;;;;4954664;28;20589;-62
2021/09/09 00:23:52;;;;;;;1999.90;999.90;;;;;;;;;;4953859;29;20228;-63
2021/09/09 00:26:37;;;;;;;1999.90;999.90;;;;;;;;;;4955311;29;20701;-61
2021/09/09 00:29:22;;;;;;;1999.90;999.90;;;;;;;;;;4953199;28;20559;-62
2021/09/09 00:32:07;;;;;;;1999.90;999.90;;;;;;;;;;4946260;29;20239;-64
2021/09/09 00:34:52;;;;;;;1999.90;999.90;;;;;;;;;;4953192;29;20353;-62
2021/09/09 00:37:38;;;;;;;1999.90;999.90;;;;;;;;;;4954756;29;20232;-60
2021/09/09 00:40:24;;;;;;;1999.90;999.90;;;;;;;;;;4953187;29;20287;-64
2021/09/09 00:43:09;;;;;;;1999.90;999.90;;;;;;;;;;4954044;29;20356;-63
2021/09/09 00:45:54;;;;;;;1999.90;999.90;;;;;;;;;;4952573;29;20706;-62
2021/09/09 00:48:40;;;;;;;1999.90;999.90;;;;;;;;;;4954028;29;20231;-62
2021/09/09 00:51:24;;;;;;;1999.90;999.90;;;;;;;;;;4953015;28;20520;-61
2021/09/09 00:54:09;;;;;;;1999.90;999.90;;;;;;;;;;4953327;29;20223;-63
2021/09/09 00:56:56;;;;;;;1999.90;999.90;;;;;;;;;;4954643;29;20229;-62
2021/09/09 00:59:41;;;;;;;1999.90;999.90;;;;;;;;;;4953719;29;20216;-64
2021/09/09 01:02:26;;;;;;;1999.90;999.90;;;;;;;;;;4953834;28;20734;-62
2021/09/09 01:05:11;;;;;;;1999.90;999.90;;;;;;;;;;4951694;29;20231;-63
2021/09/09 01:07:56;;;;;;;1999.90;999.90;;;;;;;;;;4954514;29;20197;-63
2021/09/09 01:10:41;;;;;;;1999.90;999.90;;;;;;;;;;4953624;28;20357;-62
2021/09/09 01:13:27;;;;;;;1999.90;999.90;;;;;;;;;;4953870;29;20210;-62
2021/09/09 01:16:12;;;;;;;1999.90;999.90;;;;;;;;;;4952814;29;20528;-61
2021/09/09 01:18:57;;;;;;;1999.90;999.90;;;;;;;;;;4953537;29;20357;-63
2021/09/09 01:21:42;;;;;;;1999.90;999.90;;;;;;;;;;4953238;28;20327;-60
2021/09/09 01:24:29;;;;;;;1999.90;999.90;;;;;;;;;;4951861;29;20219;-61
2021/09/09 01:27:16;;;;;;;1999.90;999.90;;;;;;;;;;4954234;29;20609;-64
2021/09/09 01:30:02;;;;;;;1999.90;999.90;;;;;;;;;;4953169;29;20636;-59
2021/09/09 01:32:47;;;;;;;1999.90;999.90;;;;;;;;;;4953408;28;20237;-63
2021/09/09 01:35:32;;;;;;;1999.90;999.90;;;;;;;;;;4951229;29;20288;-63
2021/09/09 01:38:20;;;;;;;1999.90;999.90;;;;;;;;;;4953353;29;20324;-60
2021/09/09 01:41:07;;;;;;;1999.90;999.90;;;;;;;;;;4934344;29;20233;-62
2021/09/09 01:43:52;;;;;;;1999.90;999.90;;;;;;;;;;4939656;29;20220;-60
2021/09/09 01:46:37;;;;;;;1999.90;999.90;;;;;;;;;;4954278;29;20220;-63
2021/09/09 01:49:22;;;;;;;1999.90;999.90;;;;;;;;;;4951735;29;20212;-62
2021/09/09 01:52:07;;;;;;;1999.90;999.90;;;;;;;;;;4952830;28;20283;-60
2021/09/09 01:54:52;;;;;;;1999.90;999.90;;;;;;;;;;4951167;29;20244;-62
2021/09/09 01:57:38;;;;;;;1999.90;999.90;;;;;;;;;;4953611;29;20333;-61
2021/09/09 02:00:24;;;;;;;1999.90;999.90;;;;;;;;;;4951791;29;20436;-62
2021/09/09 02:03:09;;;;;;;1999.90;999.90;;;;;;;;;;4952037;29;20292;-65
2021/09/09 02:05:54;;;;;;;1999.90;999.90;;;;;;;;;;4952774;29;20217;-61
2021/09/09 02:08:38;;;;;;;1999.90;999.90;;;;;;;;;;4952681;29;20212;-64
2021/09/09 02:11:24;;;;;;;1999.90;999.90;;;;;;;;;;4953244;28;20747;-61
2021/09/09 02:14:10;;;;;;;1999.90;999.90;;;;;;;;;;4950884;29;20232;-62
2021/09/09 02:16:55;;;;;;;1999.90;999.90;;;;;;;;;;4953289;29;20228;-62
2021/09/09 02:19:40;;;;;;;1999.90;999.90;;;;;;;;;;4952332;29;20256;-59
2021/09/09 02:22:25;;;;;;;1999.90;999.90;;;;;;;;;;4953402;28;20312;-62
2021/09/09 02:25:11;;;;;;;1999.90;999.90;;;;;;;;;;4950178;29;20292;-61
2021/09/09 02:27:55;;;;;;;1999.90;999.90;;;;;;;;;;4953250;29;20211;-62
2021/09/09 02:30:42;;;;;;;1999.90;999.90;;;;;;;;;;4952168;28;20239;-59
2021/09/09 02:33:27;;;;;;;1999.90;999.90;;;;;;;;;;4952108;29;20212;-63
2021/09/09 02:36:12;;;;;;;1999.90;999.90;;;;;;;;;;4952346;29;20695;-62
2021/09/09 02:38:57;;;;;;;1999.90;999.90;;;;;;;;;;4952000;29;20228;-61
2021/09/09 02:41:42;;;;;;;1999.90;999.90;;;;;;;;;;4952787;29;20229;-61
2021/09/09 02:44:27;;;;;;;1999.90;999.90;;;;;;;;;;4951225;29;20750;-62
2021/09/09 02:47:15;;;;;;;1999.90;999.90;;;;;;;;;;4952611;29;20694;-63
2021/09/09 02:50:00;;;;;;;1999.90;999.90;;;;;;;;;;4952039;29;20217;-62
2021/09/09 02:52:46;;;;;;;1999.90;999.90;;;;;;;;;;4952027;28;20927;-65
2021/09/09 02:55:30;;;;;;;1999.90;999.90;;;;;;;;;;4940596;29;20215;-62
2021/09/09 02:58:15;;;;;;;1999.90;999.90;;;;;;;;;;4935377;29;20229;-63
2021/09/09 03:01:00;;;;;;;1999.90;999.90;;;;;;;;;;4938237;28;20319;-61
2021/09/09 03:03:47;;;;;;;1999.90;999.90;;;;;;;;;;4950114;29;20627;-60
2021/09/09 03:06:31;;;;;;;1999.90;999.90;;;;;;;;;;4945512;29;20208;-62
2021/09/09 03:09:16;;;;;;;1999.90;999.90;;;;;;;;;;4932730;29;20329;-62
2021/09/09 03:12:01;;;;;;;1999.90;999.90;;;;;;;;;;4934048;28;20624;-62
2021/09/09 03:14:47;;;;;;;1999.90;999.90;;;;;;;;;;4934966;29;20207;-62
2021/09/09 03:17:31;;;;;;;1999.90;999.90;;;;;;;;;;4950899;29;20887;-63
2021/09/09 03:20:18;;;;;;;1999.90;999.90;;;;;;;;;;4949306;29;20267;-64
2021/09/09 03:23:03;;;;;;;1999.90;999.90;;;;;;;;;;4949880;29;20300;-59
2021/09/09 03:25:48;;;;;;;1999.90;999.90;;;;;;;;;;4948532;29;20207;-63
2021/09/09 03:28:33;;;;;;;1999.90;999.90;;;;;;;;;;4950758;29;20358;-63
2021/09/09 03:31:18;;;;;;;1999.90;999.90;;;;;;;;;;4948523;28;20224;-62
2021/09/09 03:34:03;;;;;;;1999.90;999.90;;;;;;;;;;4948748;29;20416;-57
2021/09/09 03:36:50;;;;;;;1999.90;999.90;;;;;;;;;;4934855;29;20249;-60
2021/09/09 03:39:35;;;;;;;1999.90;999.90;;;;;;;;;;4932507;29;20205;-64
2021/09/09 03:42:20;;;;;;;1999.90;999.90;;;;;;;;;;4944129;29;20364;-63
2021/09/09 03:45:05;;;;;;;1999.90;999.90;;;;;;;;;;4932520;29;20257;-64
2021/09/09 03:47:50;;;;;;;1999.90;999.90;;;;;;;;;;4934358;29;20220;-62
2021/09/09 03:50:36;;;;;;;1999.90;999.90;;;;;;;;;;4951010;29;20276;-62
2021/09/09 03:53:22;;;;;;;1999.90;999.90;;;;;;;;;;4938100;29;20613;-63
2021/09/09 03:56:07;;;;;;;1999.90;999.90;;;;;;;;;;4951241;29;20209;-62
2021/09/09 03:58:52;;;;;;;1999.90;999.90;;;;;;;;;;4949368;29;20232;-61
2021/09/09 04:01:36;;;;;;;1999.90;999.90;;;;;;;;;;4952025;28;21027;-60
2021/09/09 04:04:21;;;;;;;1999.90;999.90;;;;;;;;;;4951980;28;20220;-62
2021/09/09 04:07:06;;;;;;;1999.90;999.90;;;;;;;;;;4954820;29;20627;-60
2021/09/09 04:09:52;;;;;;;1999.90;999.90;;;;;;;;;;4954565;29;20222;-62
2021/09/09 04:12:37;;;;;;;1999.90;999.90;;;;;;;;;;4954429;28;20240;-61
2021/09/09 04:15:22;;;;;;;1999.90;999.90;;;;;;;;;;4952813;29;20208;-64
2021/09/09 04:18:07;;;;;;;1999.90;999.90;;;;;;;;;;4954302;29;20228;-62
2021/09/09 04:20:53;;;;;;;1999.90;999.90;;;;;;;;;;4955370;28;20208;-60
2021/09/09 04:23:38;;;;;;;1999.90;999.90;;;;;;;;;;4954381;29;20216;-63
2021/09/09 04:26:24;;;;;;;1999.90;999.90;;;;;;;;;;4953658;29;20217;-62
2021/09/09 04:29:09;;;;;;;1999.90;999.90;;;;;;;;;;4952803;29;20251;-62
2021/09/09 04:31:54;;;;;;;1999.90;999.90;;;;;;;;;;4955121;28;20232;-63
2021/09/09 04:34:39;;;;;;;1999.90;999.90;;;;;;;;;;4952112;29;20711;-62
2021/09/09 04:37:24;;;;;;;1999.90;999.90;;;;;;;;;;4954729;29;20228;-62
2021/09/09 04:40:09;;;;;;;1999.90;999.90;;;;;;;;;;4940178;29;20573;-62
2021/09/09 04:42:55;;;;;;;1999.90;999.90;;;;;;;;;;4950934;29;20433;-62
2021/09/09 04:45:40;;;;;;;1999.90;999.90;;;;;;;;;;4954333;29;20211;-64
2021/09/09 04:48:25;;;;;;;1999.90;999.90;;;;;;;;;;4953055;29;20324;-59
2021/09/09 04:51:10;;;;;;;1999.90;999.90;;;;;;;;;;4952844;29;20244;-60
2021/09/09 04:53:55;;;;;;;1999.90;999.90;;;;;;;;;;4951621;29;20221;-62
2021/09/09 04:56:40;;;;;;;1999.90;999.90;;;;;;;;;;4945685;29;20636;-62
2021/09/09 04:59:26;;;;;;;1999.90;999.90;;;;;;;;;;4950143;29;20240;-62
2021/09/09 05:02:11;;;;;;;1999.90;999.90;;;;;;;;;;4948353;29;20591;-61
2021/09/09 05:04:56;;;;;;;1999.90;999.90;;;;;;;;;;4951082;29;20782;-62
2021/09/09 05:07:41;;;;;;;1999.90;999.90;;;;;;;;;;4948959;29;20216;-62
2021/09/09 05:10:26;;;;;;;1999.90;999.90;;;;;;;;;;4944741;29;20341;-64
2021/09/09 05:13:11;;;;;;;1999.90;999.90;;;;;;;;;;4941035;29;20259;-62
2021/09/09 05:15:57;;;;;;;1999.90;999.90;;;;;;;;;;4948263;29;20296;-58
2021/09/09 05:18:42;;;;;;;1999.90;999.90;;;;;;;;;;4954566;29;20727;-62
2021/09/09 05:21:27;;;;;;;1999.90;999.90;;;;;;;;;;4954136;28;20284;-60
2021/09/09 05:24:12;;;;;;;1999.90;999.90;;;;;;;;;;4953365;29;20213;-63
2021/09/09 05:26:57;;;;;;;1999.90;999.90;;;;;;;;;;4953345;29;20411;-62
2021/09/09 05:29:41;;;;;;;1999.90;999.90;;;;;;;;;;4954168;29;20208;-60
2021/09/09 05:32:28;;;;;;;1999.90;999.90;;;;;;;;;;4949036;28;20767;-61
2021/09/09 05:35:13;;;;;;;1999.90;999.90;;;;;;;;;;4945838;29;20217;-61
2021/09/09 05:37:58;;;;;;;1999.90;999.90;;;;;;;;;;4950533;29;20220;-62
2021/09/09 05:40:43;;;;;;;1999.90;999.90;;;;;;;;;;4951920;29;20264;-61
2021/09/09 05:43:28;;;;;;;1999.90;999.90;;;;;;;;;;4936089;29;20258;-61
2021/09/09 05:46:13;;;;;;;1999.90;999.90;;;;;;;;;;4937732;29;20216;-63
2021/09/09 05:48:59;;;;;;;1999.90;999.90;;;;;;;;;;4951510;29;20801;-61
2021/09/09 05:51:44;;;;;;;1999.90;999.90;;;;;;;;;;4942999;29;20409;-63
2021/09/09 05:54:29;;;;;;;1999.90;999.90;;;;;;;;;;4951756;29;20216;-63
2021/09/09 05:57:14;;;;;;;1999.90;999.90;;;;;;;;;;4952692;29;20208;-63
2021/09/09 05:59:59;;;;;;;1999.90;999.90;;;;;;;;;;4952273;29;20212;-61
2021/09/09 06:02:44;;;;;;;1999.90;999.90;;;;;;;;;;4952115;28;20276;-61
2021/09/09 06:05:34;;;;;;;1999.90;999.90;;;;;;;;;;4932943;29;20300;-62
2021/09/09 06:08:19;;;;;;;1999.90;999.90;;;;;;;;;;4951648;29;20200;-62
2021/09/09 06:11:04;;;;;;;1999.90;999.90;;;;;;;;;;4941110;29;20301;-63
2021/09/09 06:13:50;;;;;;;1999.90;999.90;;;;;;;;;;4933467;29;20213;-62
2021/09/09 06:16:34;;;;;;;1999.90;999.90;;;;;;;;;;4933488;29;20260;-64
2021/09/09 06:19:19;;;;;;;1999.90;999.90;;;;;;;;;;4933228;29;20235;-63
2021/09/09 06:22:06;;;;;;;1999.90;999.90;;;;;;;;;;4940770;28;20894;-62
2021/09/09 06:24:51;;;;;;;1999.90;999.90;;;;;;;;;;4949700;29;20327;-63
2021/09/09 06:27:36;;;;;;;1999.90;999.90;;;;;;;;;;4951894;28;20212;-63
2021/09/09 06:30:21;;;;;;;1999.90;999.90;;;;;;;;;;4952009;29;20602;-63
2021/09/09 06:33:06;;;;;;;1999.90;999.90;;;;;;;;;;4952199;29;20710;-63
2021/09/09 06:35:51;;;;;;;1999.90;999.90;;;;;;;;;;4951284;29;20220;-63
2021/09/09 06:38:37;;;;;;;1999.90;999.90;;;;;;;;;;4953619;28;20231;-62
2021/09/09 06:41:22;;;;;;;1999.90;999.90;;;;;;;;;;4952827;28;20592;-63
2021/09/09 06:44:08;;;;;;;1999.90;999.90;;;;;;;;;;4950313;29;20218;-63
2021/09/09 06:46:53;;;;;;;1999.90;999.90;;;;;;;;;;4950241;29;20218;-63
2021/09/09 06:49:38;;;;;;;1999.90;999.90;;;;;;;;;;4951303;29;20216;-64
2021/09/09 06:52:23;;;;;;;1999.90;999.90;;;;;;;;;;4952653;28;20239;-63
2021/09/09 06:55:09;;;;;;;1999.90;999.90;;;;;;;;;;4950830;29;20223;-63
2021/09/09 06:57:54;;;;;;;1999.90;999.90;;;;;;;;;;4950722;29;20221;-62
2021/09/09 07:00:39;;;;;;;1999.90;999.90;;;;;;;;;;4947399;28;20468;-62
2021/09/09 07:03:29;;;;;;;1999.90;999.90;;;;;;;;;;4952318;29;20213;-63
2021/09/09 07:06:15;;;;;;;1999.90;999.90;;;;;;;;;;4939331;29;20217;-63
2021/09/09 07:09:00;;;;;;;1999.90;999.90;;;;;;;;;;4932848;29;20205;-62
2021/09/09 07:11:46;;;;;;;1999.90;999.90;;;;;;;;;;4934050;29;20236;-63
2021/09/09 07:14:31;;;;;;;1999.90;999.90;;;;;;;;;;4931963;29;20217;-62
2021/09/09 07:17:16;;;;;;;1999.90;999.90;;;;;;;;;;4949545;29;20249;-64
2021/09/09 07:20:01;;;;;;;1999.90;999.90;;;;;;;;;;4950795;29;20267;-63
2021/09/09 07:22:46;;;;;;;1999.90;999.90;;;;;;;;;;4951018;28;20445;-61
2021/09/09 07:25:31;;;;;;;1999.90;999.90;;;;;;;;;;4949437;29;20333;-64
2021/09/09 07:28:17;;;;;;;1999.90;999.90;;;;;;;;;;4950395;29;20264;-63
2021/09/09 07:31:02;;;;;;;1999.90;999.90;;;;;;;;;;4951016;28;20739;-63
2021/09/09 07:33:47;;;;;;;1999.90;999.90;;;;;;;;;;4950268;29;20221;-63
2021/09/09 07:36:31;;;;;;;1999.90;999.90;;;;;;;;;;4948034;29;20212;-63
2021/09/09 07:39:16;;;;;;;1999.90;999.90;;;;;;;;;;4952631;28;20319;-62
2021/09/09 07:42:01;;;;;;;1999.90;999.90;;;;;;;;;;4952781;28;20244;-63
2021/09/09 07:44:47;;;;;;;1999.90;999.90;;;;;;;;;;4951431;29;20432;-64
2021/09/09 07:47:33;;;;;;;1999.90;999.90;;;;;;;;;;4949578;29;20736;-63
2021/09/09 07:50:18;;;;;;;1999.90;999.90;;;;;;;;;;4937644;29;20201;-62
2021/09/09 07:53:03;;;;;;;1999.90;999.90;;;;;;;;;;4944127;29;20226;-63
2021/09/09 07:55:47;;;;;;;1999.90;999.90;;;;;;;;;;4951900;29;20688;-64
2021/09/09 07:58:32;;;;;;;1999.90;999.90;;;;;;;;;;4954389;29;20227;-62
2021/09/09 08:01:19;;;;;;;1999.90;999.90;;;;;;;;;;4954210;28;20239;-63
2021/09/09 08:04:04;;;;;;;1999.90;999.90;;;;;;;;;;4952680;29;20216;-61
2021/09/09 08:06:49;;;;;;;1999.90;999.90;;;;;;;;;;4950837;29;20341;-62
2021/09/09 08:09:34;;;;;;;1999.90;999.90;;;;;;;;;;4954302;29;20214;-62
2021/09/09 08:12:19;;;;;;;1999.90;999.90;;;;;;;;;;4954638;28;20374;-63
2021/09/09 08:15:05;;;;;;;1999.90;999.90;;;;;;;;;;4953571;29;20209;-63
2021/09/09 08:17:51;;;;;;;1999.90;999.90;;;;;;;;;;4954963;29;20223;-64
2021/09/09 08:20:36;;;;;;;1999.90;999.90;;;;;;;;;;4953949;28;20291;-63
2021/09/09 08:23:21;;;;;;;1999.90;999.90;;;;;;;;;;4953639;29;20340;-60
2021/09/09 08:26:06;;;;;;;1999.90;999.90;;;;;;;;;;4952620;29;20220;-62
2021/09/09 08:28:51;;;;;;;1999.90;999.90;;;;;;;;;;4953833;29;20207;-60
2021/09/09 08:31:36;;;;;;;1999.90;999.90;;;;;;;;;;4949740;28;20240;-64
2021/09/09 08:34:22;;;;;;;1999.90;999.90;;;;;;;;;;4937842;29;20217;-63
2021/09/09 08:37:07;;;;;;;1999.90;999.90;;;;;;;;;;4953386;29;20210;-62
2021/09/09 08:39:52;;;;;;;1999.90;999.90;;;;;;;;;;4953521;29;20310;-61
2021/09/09 08:42:39;;;;;;;1999.90;999.90;;;;;;;;;;4952998;29;20304;-63
2021/09/09 08:45:24;;;;;;;1999.90;999.90;;;;;;;;;;4953059;29;20225;-64
2021/09/09 08:48:11;;;;;;;1999.90;999.90;;;;;;;;;;4952889;29;20721;-62
2021/09/09 08:50:58;;;;;;;1999.90;999.90;;;;;;;;;;4950375;28;20731;-62
2021/09/09 08:53:43;;;;;;;1999.90;999.90;;;;;;;;;;4953318;29;20294;-62
2021/09/09 08:56:28;;;;;;;1999.90;999.90;;;;;;;;;;4953649;29;20607;-63
2021/09/09 08:59:13;;;;;;;1999.90;999.90;;;;;;;;;;4952047;29;20263;-62
2021/09/09 09:02:00;;;;;;;1999.90;999.90;;;;;;;;;;4937054;29;20247;-64
2021/09/09 09:04:59;;;;;;;1999.90;999.90;;;;;;;;;;4940569;29;20237;-62
2021/09/09 09:07:46;;;;;;;1999.90;999.90;;;;;;;;;;4945055;28;20632;-64
2021/09/09 09:10:32;;;;;;;1999.90;999.90;;;;;;;;;;4954673;29;20204;-63
2021/09/09 09:13:17;;;;;;;1999.90;999.90;;;;;;;;;;4953281;29;20220;-63
2021/09/09 09:16:02;;;;;;;1999.90;999.90;;;;;;;;;;4953734;29;20325;-61
2021/09/09 09:18:47;;;;;;;1999.90;999.90;;;;;;;;;;4952367;29;20239;-63
2021/09/09 09:21:33;;;;;;;1999.90;999.90;;;;;;;;;;4954299;28;20235;-62
2021/09/09 09:24:20;;;;;;;1999.90;999.90;;;;;;;;;;4951478;29;20210;-62
2021/09/09 09:27:07;;;;;;;1999.90;999.90;;;;;;;;;;4951383;29;20216;-64
2021/09/09 09:29:59;;;;;;;1999.90;999.90;;;;;;;;;;4954062;29;20243;-62
2021/09/09 09:32:48;;;;;;;1999.90;999.90;;;;;;;;;;4953251;29;20773;-63
2021/09/09 09:35:33;;;;;;;1999.90;999.90;;;;;;;;;;4952922;29;20264;-64
2021/09/09 09:38:23;;;;;;;1999.90;999.90;;;;;;;;;;4950312;29;20357;-63
2021/09/09 09:41:09;;;;;;;1999.90;999.90;;;;;;;;;;4945794;28;20231;-62
2021/09/09 09:43:59;;;;;;;1999.90;999.90;;;;;;;;;;4949428;29;20585;-62
2021/09/09 09:46:44;;;;;;;1999.90;999.90;;;;;;;;;;4949815;29;20299;-63
2021/09/09 09:49:29;;;;;;;1999.90;999.90;;;;;;;;;;4952531;29;20212;-62
2021/09/09 09:52:19;;;;;;;1999.90;999.90;;;;;;;;;;4947275;28;20598;-63
2021/09/09 09:55:08;;;;;;;1999.90;999.90;;;;;;;;;;4952785;29;20212;-62
2021/09/09 09:57:55;;;;;;;1999.90;999.90;;;;;;;;;;4953647;29;20240;-63
2021/09/09 10:00:40;;;;;;;1999.90;999.90;;;;;;;;;;4953134;28;20774;-63
2021/09/09 10:03:25;;;;;;;1999.90;999.90;;;;;;;;;;4952880;29;20703;-62
2021/09/09 10:06:10;;;;;;;1999.90;999.90;;;;;;;;;;4951769;29;20232;-60
2021/09/09 10:08:55;;;;;;;1999.90;999.90;;;;;;;;;;4945535;29;20208;-63
2021/09/09 10:11:40;;;;;;;1999.90;999.90;;;;;;;;;;4952273;29;20739;-62
2021/09/09 10:14:27;;;;;;;1999.90;999.90;;;;;;;;;;4952586;29;20292;-63
2021/09/09 10:17:13;;;;;;;1999.90;999.90;;;;;;;;;;4952127;29;20625;-64
2021/09/09 10:20:18;;;;;;;1999.90;999.90;;;;;;;;;;4953031;29;20228;-64
2021/09/09 10:23:05;;;;;;;1999.90;999.90;;;;;;;;;;4949397;29;20702;-63
2021/09/09 10:25:53;;;;;;;1999.90;999.90;;;;;;;;;;4950909;29;20224;-64
2021/09/09 10:28:42;;;;;;;1999.90;999.90;;;;;;;;;;4942789;29;20345;-63
2021/09/09 10:31:37;;;;;;;1999.90;999.90;;;;;;;;;;4950756;29;20224;-62
2021/09/09 10:34:23;;;;;;;1999.90;999.90;;;;;;;;;;4951139;29;20510;-64
2021/09/09 10:37:28;;;;;;;1999.90;999.90;;;;;;;;;;4951572;29;20309;-63
2021/09/09 10:40:30;;;;;;;1999.90;999.90;;;;;;;;;;4951509;29;20321;-62
2021/09/09 10:43:16;;;;;;;1999.90;999.90;;;;;;;;;;4947944;28;20215;-64
2021/09/09 10:46:01;;;;;;;1999.90;999.90;;;;;;;;;;4947874;29;20718;-63
2021/09/09 10:49:04;;;;;;;1999.90;999.90;;;;;;;;;;4950797;29;20681;-62
2021/09/09 10:52:08;;;;;;;1999.90;999.90;;;;;;;;;;4950358;28;20236;-63
2021/09/09 10:55:03;;;;;;;1999.90;999.90;;;;;;;;;;4931904;29;20322;-63
2021/09/09 10:57:48;;;;;;;1999.90;999.90;;;;;;;;;;4932691;29;20236;-62
2021/09/09 11:00:53;;;;;;;1999.90;999.90;;;;;;;;;;4951381;29;20364;-63
2021/09/09 11:03:39;;;;;;;1999.90;999.90;;;;;;;;;;4952583;29;20248;-64
2021/09/09 11:06:27;;;;;;;1999.90;999.90;;;;;;;;;;4949962;29;20212;-62
2021/09/09 11:09:12;;;;;;;1999.90;999.90;;;;;;;;;;4951016;29;20225;-64
2021/09/09 11:12:02;;;;;;;1999.90;999.90;;;;;;;;;;4952168;29;20237;-63
2021/09/09 11:14:47;;;;;;;1999.90;999.90;;;;;;;;;;4950963;29;20751;-64
2021/09/09 11:17:31;;;;;;;1999.90;999.90;;;;;;;;;;4951119;29;20615;-64
2021/09/09 11:20:16;;;;;;;1999.90;999.90;;;;;;;;;;4933017;29;20291;-63
2021/09/09 11:23:09;;;;;;;1999.90;999.90;;;;;;;;;;4933081;29;20220;-64
2021/09/09 11:25:55;;;;;;;1999.90;999.90;;;;;;;;;;4932652;29;20209;-63
2021/09/09 11:28:41;;;;;;;1999.90;999.90;;;;;;;;;;4940694;29;20212;-64
2021/09/09 11:31:27;;;;;;;1999.90;999.90;;;;;;;;;;4951985;28;20225;-64
2021/09/09 11:34:12;;;;;;;1999.90;999.90;;;;;;;;;;4950682;29;20224;-63
2021/09/09 11:36:59;;;;;;;1999.90;999.90;;;;;;;;;;4952021;29;20213;-63
2021/09/09 11:39:45;;;;;;;1999.90;999.90;;;;;;;;;;4951753;29;20742;-64
2021/09/09 11:42:30;;;;;;;1999.90;999.90;;;;;;;;;;4950970;29;20233;-64
2021/09/09 11:45:15;;;;;;;1999.90;999.90;;;;;;;;;;4951452;29;20746;-63
2021/09/09 11:48:04;;;;;;;1999.90;999.90;;;;;;;;;;4951182;29;20208;-63
2021/09/09 11:50:49;;;;;;;1999.90;999.90;;;;;;;;;;4950720;29;20213;-63
2021/09/09 11:53:34;;;;;;;1999.90;999.90;;;;;;;;;;4949669;29;20255;-65
2021/09/09 11:56:22;;;;;;;1999.90;999.90;;;;;;;;;;4951361;29;20209;-64
2021/09/09 11:59:09;;;;;;;1999.90;999.90;;;;;;;;;;4950115;29;20707;-63
2021/09/09 12:02:01;;;;;;;1999.90;999.90;;;;;;;;;;4947119;28;20240;-63
2021/09/09 12:04:46;;;;;;;1999.90;999.90;;;;;;;;;;4938184;29;20221;-63
2021/09/09 12:07:32;;;;;;;1999.90;999.90;;;;;;;;;;4951709;29;20217;-63
2021/09/09 12:10:22;;;;;;;1999.90;999.90;;;;;;;;;;4950306;29;20595;-64
2021/09/09 12:13:09;;;;;;;1999.90;999.90;;;;;;;;;;4950536;29;20264;-64
2021/09/09 12:15:54;;;;;;;1999.90;999.90;;;;;;;;;;4950152;29;20614;-64
2021/09/09 12:18:39;;;;;;;1999.90;999.90;;;;;;;;;;4951898;29;20216;-63
2021/09/09 12:21:24;;;;;;;1999.90;999.90;;;;;;;;;;4949764;28;20236;-63
2021/09/09 12:24:10;;;;;;;1999.90;999.90;;;;;;;;;;4949588;28;21076;-63
2021/09/09 12:26:59;;;;;;;1999.90;999.90;;;;;;;;;;4953452;29;20237;-65
2021/09/09 12:29:47;;;;;;;1999.90;999.90;;;;;;;;;;4952341;29;20213;-64
2021/09/09 12:32:32;;;;;;;1999.90;999.90;;;;;;;;;;4949441;29;20240;-64
2021/09/09 12:35:18;;;;;;;1999.90;999.90;;;;;;;;;;4954068;29;20615;-64
2021/09/09 12:38:05;;;;;;;1999.90;999.90;;;;;;;;;;4954119;29;20204;-64
2021/09/09 12:40:50;;;;;;;1999.90;999.90;;;;;;;;;;4954267;29;20272;-64
2021/09/09 12:43:35;;;;;;;1999.90;999.90;;;;;;;;;;4942185;29;20292;-63
2021/09/09 12:46:26;;;;;;;1999.90;999.90;;;;;;;;;;4944066;29;20879;-64
2021/09/09 12:49:13;;;;;;;1999.90;999.90;;;;;;;;;;4954713;29;20220;-63
2021/09/09 12:52:09;;;;;;;1999.90;999.90;;;;;;;;;;4954707;28;20233;-64
2021/09/09 12:54:54;;;;;;;1999.90;999.90;;;;;;;;;;4954023;29;20762;-63
2021/09/09 12:57:41;;;;;;;1999.90;999.90;;;;;;;;;;4954420;29;20333;-64
2021/09/09 13:00:26;;;;;;;1999.90;999.90;;;;;;;;;;4954513;29;20228;-63
2021/09/09 13:03:12;;;;;;;1999.90;999.90;;;;;;;;;;4951680;29;20307;-63
2021/09/09 13:05:58;;;;;;;1999.90;999.90;;;;;;;;;;4953116;29;20464;-64
2021/09/09 13:08:44;;;;;;;1999.90;999.90;;;;;;;;;;4954351;29;20200;-63
2021/09/09 13:11:29;;;;;;;1999.90;999.90;;;;;;;;;;4952957;28;20336;-63
2021/09/09 13:14:14;;;;;;;1999.90;999.90;;;;;;;;;;4952968;29;20578;-64
2021/09/09 13:16:59;;;;;;;1999.90;999.90;;;;;;;;;;4954228;29;20209;-63
2021/09/09 13:19:45;;;;;;;1999.90;999.90;;;;;;;;;;4954071;29;20567;-63
2021/09/09 13:22:30;;;;;;;1999.90;999.90;;;;;;;;;;4954173;28;20236;-64
2021/09/09 13:25:15;;;;;;;1999.90;999.90;;;;;;;;;;4952595;29;20265;-64
2021/09/09 13:28:00;;;;;;;1999.90;999.90;;;;;;;;;;4953946;29;20208;-64
2021/09/09 13:30:45;;;;;;;1999.90;999.90;;;;;;;;;;4954154;28;20326;-63
2021/09/09 13:33:30;;;;;;;1999.90;999.90;;;;;;;;;;4954242;29;20706;-63
2021/09/09 13:36:17;;;;;;;1999.90;999.90;;;;;;;;;;4951929;28;20208;-64
2021/09/09 13:39:01;;;;;;;1999.90;999.90;;;;;;;;;;4953048;29;20220;-63
2021/09/09 13:41:46;;;;;;;1999.90;999.90;;;;;;;;;;4951858;28;20236;-64
2021/09/09 13:44:31;;;;;;;1999.90;999.90;;;;;;;;;;4934090;29;20216;-64
2021/09/09 13:47:16;;;;;;;1999.90;999.90;;;;;;;;;;4935827;29;20301;-65
2021/09/09 13:50:01;;;;;;;1999.90;999.90;;;;;;;;;;4952264;29;20345;-64
2021/09/09 13:52:51;;;;;;;1999.90;999.90;;;;;;;;;;4953317;28;20228;-64
2021/09/09 13:55:36;;;;;;;1999.90;999.90;;;;;;;;;;4952935;29;20224;-63
2021/09/09 13:58:21;;;;;;;1999.90;999.90;;;;;;;;;;4953455;28;20216;-64
2021/09/09 14:01:08;;;;;;;1999.90;999.90;;;;;;;;;;4951404;28;20239;-63
2021/09/09 14:03:53;;;;;;;1999.90;999.90;;;;;;;;;;4938262;29;20220;-63
2021/09/09 14:06:38;;;;;;;1999.90;999.90;;;;;;;;;;4933739;29;20204;-63
2021/09/09 14:09:25;;;;;;;1999.90;999.90;;;;;;;;;;4934803;29;20217;-64
2021/09/09 14:12:10;;;;;;;1999.90;999.90;;;;;;;;;;4933362;29;20249;-64
2021/09/09 14:14:55;;;;;;;1999.90;999.90;;;;;;;;;;4935752;28;20224;-64
2021/09/09 14:17:40;;;;;;;1999.90;999.90;;;;;;;;;;4948305;28;20476;-63
2021/09/09 14:20:24;;;;;;;1999.90;999.90;;;;;;;;;;4950212;29;20225;-59
2021/09/09 14:23:09;;;;;;;1999.90;999.90;;;;;;;;;;4952990;29;20577;-63
2021/09/09 14:25:56;;;;;;;1999.90;999.90;;;;;;;;;;4951721;29;20730;-64
2021/09/09 14:28:41;;;;;;;1999.90;999.90;;;;;;;;;;4945662;29;20221;-63
2021/09/09 14:31:25;;;;;;;1999.90;999.90;;;;;;;;;;4934355;29;20284;-63
2021/09/09 14:34:10;;;;;;;1999.90;999.90;;;;;;;;;;4934585;29;20213;-63
2021/09/09 14:36:55;;;;;;;1999.90;999.90;;;;;;;;;;4932753;29;20206;-64
2021/09/09 14:39:41;;;;;;;1999.90;999.90;;;;;;;;;;4948061;29;20213;-62
2021/09/09 14:42:27;;;;;;;1999.90;999.90;;;;;;;;;;4933620;28;20621;-62
2021/09/09 14:45:13;;;;;;;1999.90;999.90;;;;;;;;;;4932942;29;20449;-63
2021/09/09 14:47:57;;;;;;;1999.90;999.90;;;;;;;;;;4932773;29;20208;-63
2021/09/09 14:50:42;;;;;;;1999.90;999.90;;;;;;;;;;4938410;29;20320;-62
2021/09/09 14:53:27;;;;;;;1999.90;999.90;;;;;;;;;;4947807;29;20264;-63
2021/09/09 14:56:12;;;;;;;1999.90;999.90;;;;;;;;;;4951949;29;20262;-63
2021/09/09 14:58:58;;;;;;;1999.90;999.90;;;;;;;;;;4951225;29;20217;-64
2021/09/09 15:01:43;;;;;;;1999.90;999.90;;;;;;;;;;4950144;28;20321;-63
2021/09/09 15:04:28;;;;;;;1999.90;999.90;;;;;;;;;;4952166;29;20311;-63
2021/09/09 15:07:14;;;;;;;1999.90;999.90;;;;;;;;;;4951380;29;20220;-63
2021/09/09 15:10:01;;;;;;;1999.90;999.90;;;;;;;;;;4946057;29;20417;-63
2021/09/09 15:12:45;;;;;;;1999.90;999.90;;;;;;;;;;4951292;28;20618;-64
2021/09/09 15:15:32;;;;;;;1999.90;999.90;;;;;;;;;;4951768;29;20336;-64
2021/09/09 15:18:17;;;;;;;1999.90;999.90;;;;;;;;;;4951947;29;20336;-62
2021/09/09 15:21:02;;;;;;;1999.90;999.90;;;;;;;;;;4951417;29;20236;-63
2021/09/09 15:23:46;;;;;;;1999.90;999.90;;;;;;;;;;4952120;29;20637;-63
2021/09/09 15:26:31;;;;;;;1999.90;999.90;;;;;;;;;;4951412;29;20867;-63